Norsk, Russia
Current Conditions -  °F | °C
As of 9:00 AM on Friday 28 Nov 2014 (Local Time) from UHBB Reporting Station
Clear Clear  
Wind Chill: -9°   Ceiling: Unl
Heat Index: -9°   Visibility: 6mi
Dew Point: -11°   Wind: 2mph
Humidity: 92%   Direction: 250°WSW
Pressure: 30.3"   Gusts: NA
Location:  52.34°N, 129.91°E
Report Text: UHBB 280000Z 25001MPS CAVOK M23/M24 Q1026 NOSIG RMK QFE752/100336410250
Loading
Personal Weather Stations






























Interactive Weather Map New forecast layout! Learn more

10-Day Weather Forecast

Advertisements
Track Severe Weather on mobile